BLACK BUTTE (BLB)

Elevation: 426' · STONY CR basin · Operator: US Army Corps of Engineers

Provisional data, subject to change.
Query executed Saturday at 13:53:29   clock

Select a sensor type for a plot of data.
Note: Reservoir Flows are daily averages.

Earlier

Date RES ELE    STORAGE    RES CHG    TOC STO    ABV TOC    OUTFLOW    INFLOW    PPT INC    TEMP MN    TEMP MX    EVP PAN   
 FEET   AF   AF   AF   AF   CFS   CFS   INCHES   DEG F   DEG F   INCHES  
08/25/2016 446.10 44210 -457 136200 -91990 208 1 0.00 20 36 0.30
08/26/2016 445.88 43711 -499 136200 -92489 227 -2 0.00 15 33 0.29
08/27/2016 445.68 43260 -451 136200 -92940 213 6 0.00 14 32 0.27
08/28/2016 445.49 42834 -426 136200 -93366 190 -4 0.00 14 33 0.27
08/29/2016 445.29 42389 -445 136200 -93811 214 8 0.00 17 33 0.24
08/30/2016 445.08 41925 -464 136200 -94275 225 10 0.00 17 32 0.26
08/31/2016 444.87 41464 -461 136200 -94736 216 5 0.00 18 32 0.27
09/01/2016 444.63 40941 -523 136200 -95259 258 14 0.00 16 32 0.25
09/02/2016 444.35 40338 -603 136200 -95862 287 1 0.00 17 33 0.23
09/03/2016 444.08 39761 -577 136200 -96439 266 -6 0.00 19 30 0.25
09/04/2016 443.84 39254 -507 136200 -96946 244 6 0.02 14 30 0.23
09/05/2016 443.65 38856 -398 136200 -97344 190 11 0.14 17 34 0.28
09/06/2016 443.44 38419 -437 136200 -97781 207 3 0.02 16 34 0.22
09/07/2016 443.20 37924 -495 136200 -98276 216 -12 0.08 22 37 0.28
09/08/2016 443.00 37515 -409 136200 -98685 192 4 0.06 20 36 0.25
09/09/2016 442.81 37130 -385 136200 -99070 177 2 0.00 19 39 0.26
09/10/2016 442.61 36726 -404 136200 -99474 192 7 0.00 18 36 0.26
09/11/2016 442.42 36345 -381 136200 -99855 181 8 0.00 17 31 0.26
09/12/2016 442.22 35947 -398 136200 -100253 180 -6 0.00 13 26 0.21
09/13/2016 441.97 35453 -494 136200 -100747 212 -23 0.00 10 24 0.19
09/14/2016 441.73 34983 -470 136200 -101217 229 6 0.00 12 29 0.20
09/15/2016 441.45 34439 -544 134703 -100264 266 7 0.00 16 32 0.22
09/16/2016 441.41 34362 -77 133207 -98845 273 252 0.00 18 38 0.25
09/17/2016 441.47 34477 115 131710 -97233 219 294 0.00 18 35 0.23
09/18/2016 441.55 34632 155 130213 -95581 193 288 0.00 18 36 0.24
09/19/2016 441.65 34827 195 128716 -93889 190 306 0.17 19 35 0.24
09/20/2016 441.75 35022 195 127220 -92198 186 302 0.00 17 32 0.24
09/21/2016 441.85 35217 195 125723 -90506 170 281 0.00 15 27 0.19
09/22/2016 441.99 35493 276 124226 -88733 160 312 0.00 10 26 0.18
09/23/2016 442.13 35769 276 122729 -86960 145 298 0.23 15 29 0.19
09/24/2016 -- -- -- -- -- -- -- -- -- -- --

Later | Latest

Warning! This data is preliminary and subject to revision.

Show BLB Map | Plot BLB Data | 1 Month BLB Data | Real-Time BLB Data | BLB Info